createdAt,value
2023-04-27T00:00:27.499Z,50.2
2023-04-27T00:01:43.786Z,48.5
2023-04-27T00:03:00.089Z,49.7
2023-04-27T00:04:16.385Z,48.9
2023-04-27T00:05:32.677Z,52.2
2023-04-27T00:06:48.963Z,50.5
2023-04-27T00:08:05.276Z,50.4
2023-04-27T00:09:21.549Z,51.4
2023-04-27T00:10:37.863Z,49.4
2023-04-27T00:11:54.161Z,48.8
2023-04-27T00:13:10.446Z,58.9
2023-04-27T00:14:26.748Z,52.2
2023-04-27T00:15:43.037Z,50.5
2023-04-27T00:16:58.343Z,49.4
2023-04-27T00:18:14.636Z,49.9
2023-04-27T00:19:30.930Z,50.1
2023-04-27T00:20:47.245Z,53
2023-04-27T00:22:03.530Z,52.3
2023-04-27T00:23:19.833Z,49.4
2023-04-27T00:24:36.112Z,51.7
2023-04-27T00:25:52.413Z,48.9
2023-04-27T00:27:08.720Z,49.3
2023-04-27T00:28:25.010Z,49.9
2023-04-27T00:29:41.294Z,50.2
2023-04-27T00:30:57.599Z,49.4
2023-04-27T00:32:13.883Z,49.4
2023-04-27T00:33:29.189Z,49.1
2023-04-27T00:34:45.482Z,48.6
2023-04-27T00:36:01.794Z,51.4
2023-04-27T00:37:18.082Z,53
2023-04-27T00:38:34.387Z,56.5
2023-04-27T00:39:50.680Z,49.9
2023-04-27T00:41:06.964Z,48.9
2023-04-27T00:42:23.258Z,49.1
2023-04-27T00:43:39.562Z,50.4
2023-04-27T00:44:55.856Z,49.7
2023-04-27T00:46:12.146Z,50.5
2023-04-27T00:47:28.444Z,52
2023-04-27T00:48:44.743Z,50.2
2023-04-27T00:50:00.042Z,51
2023-04-27T00:51:16.357Z,57.3
2023-04-27T00:52:32.647Z,51.4
2023-04-27T00:53:48.944Z,49.3
2023-04-27T00:55:05.235Z,53.3
2023-04-27T00:56:21.517Z,52.5
2023-04-27T00:57:37.825Z,50.9
2023-04-27T00:58:54.114Z,50.9
2023-04-27T01:00:10.407Z,50.4
2023-04-27T01:01:26.705Z,49.4
2023-04-27T01:02:42.999Z,50.9
2023-04-27T01:03:59.287Z,50.9
2023-04-27T01:05:15.590Z,53
2023-04-27T01:06:30.909Z,50.4
2023-04-27T01:07:47.198Z,51.5
2023-04-27T01:09:03.504Z,50.4
2023-04-27T01:10:19.784Z,50.9
2023-04-27T01:11:36.073Z,49.1
2023-04-27T01:12:52.371Z,52
2023-04-27T01:14:08.668Z,53.4
2023-04-27T01:15:24.979Z,49.4
2023-04-27T01:16:41.266Z,49.9
2023-04-27T01:17:57.569Z,50.4
2023-04-27T01:19:13.849Z,52.5
2023-04-27T01:20:30.159Z,51
2023-04-27T01:21:46.455Z,49.6
2023-04-27T01:23:01.752Z,52
2023-04-27T01:24:18.044Z,50.4
2023-04-27T01:25:34.340Z,51.5
2023-04-27T01:26:50.645Z,50.7
2023-04-27T01:28:06.934Z,52.8
2023-04-27T01:29:23.227Z,51.5
2023-04-27T01:30:39.534Z,51.8
2023-04-27T01:31:55.815Z,49.4
2023-04-27T01:33:12.111Z,50.7
2023-04-27T01:34:28.421Z,50.1
2023-04-27T01:35:44.698Z,50.7
2023-04-27T01:37:00.995Z,49.4
2023-04-27T01:38:17.298Z,48.6
2023-04-27T01:39:32.620Z,51.5
2023-04-27T01:40:48.912Z,52.2
2023-04-27T01:42:05.184Z,50.7
2023-04-27T01:43:21.494Z,51.5
2023-04-27T01:44:37.795Z,52
2023-04-27T01:45:54.079Z,52.3
2023-04-27T01:47:10.376Z,54.4
2023-04-27T01:48:26.671Z,55.4
2023-04-27T01:49:42.962Z,52.5
2023-04-27T01:50:59.253Z,52
2023-04-27T01:52:15.559Z,51.2
2023-04-27T01:53:31.848Z,50.7
2023-04-27T01:54:48.156Z,51.2
2023-04-27T01:56:03.465Z,51.5
2023-04-27T01:57:19.749Z,55.2
2023-04-27T01:58:36.054Z,52.2
2023-04-27T01:59:52.339Z,51.4
2023-04-27T02:01:08.641Z,52.5
2023-04-27T02:02:24.938Z,52
2023-04-27T02:03:41.231Z,53.4
2023-04-27T02:04:57.527Z,54.3
2023-04-27T02:06:13.825Z,52.8
2023-04-27T02:07:30.090Z,53.1
2023-04-27T02:08:46.393Z,52.6
2023-04-27T02:10:02.688Z,53.8
2023-04-27T02:11:18.981Z,56.5
2023-04-27T02:12:34.290Z,56.3
2023-04-27T02:13:50.585Z,52.2
2023-04-27T02:15:06.881Z,52
2023-04-27T02:16:23.183Z,54.7
2023-04-27T02:17:39.475Z,63.6
2023-04-27T02:18:55.774Z,54.4
2023-04-27T02:20:12.064Z,53.1
2023-04-27T02:21:28.350Z,52.8
2023-04-27T02:22:44.652Z,52
2023-04-27T02:24:00.952Z,50.5
2023-04-27T02:25:17.237Z,52.8
2023-04-27T02:26:33.533Z,54.1
2023-04-27T02:27:49.843Z,51.7
2023-04-27T02:29:05.147Z,53.6
2023-04-27T02:30:21.441Z,52.3
2023-04-27T02:31:37.745Z,56.8
2023-04-27T02:32:54.042Z,52.5
2023-04-27T02:34:10.321Z,53
2023-04-27T02:35:26.617Z,52.8
2023-04-27T02:36:42.928Z,54.6
2023-04-27T02:37:59.221Z,51.2
2023-04-27T02:39:15.509Z,54.3
2023-04-27T02:40:31.801Z,54.9
2023-04-27T02:41:48.099Z,54.6
2023-04-27T02:43:04.387Z,54.3
2023-04-27T02:44:20.679Z,53.3
2023-04-27T02:45:36.000Z,53.3
2023-04-27T02:46:52.303Z,53.4
2023-04-27T02:48:08.581Z,54.4
2023-04-27T02:49:24.882Z,54.3
2023-04-27T02:50:41.183Z,56.5
2023-04-27T02:51:57.477Z,52
2023-04-27T02:53:13.780Z,51.5
2023-04-27T02:54:30.065Z,54.1
2023-04-27T02:55:46.365Z,56.3
2023-04-27T02:57:02.662Z,56.3
2023-04-27T02:58:18.944Z,54.7
2023-04-27T02:59:35.244Z,56.8
2023-04-27T03:00:51.549Z,53.8
2023-04-27T03:02:06.851Z,55.5
2023-04-27T03:03:23.140Z,56.2
2023-04-27T03:04:39.446Z,55.4
2023-04-27T03:05:55.744Z,54.3
2023-04-27T03:07:12.034Z,57.3
2023-04-27T03:08:28.323Z,57.2
2023-04-27T03:09:44.635Z,56.2
2023-04-27T03:11:00.927Z,59.4
2023-04-27T03:12:17.227Z,55.2
2023-04-27T03:13:33.514Z,55.1
2023-04-27T03:14:49.804Z,57.6
2023-04-27T03:16:06.101Z,57
2023-04-27T03:17:22.392Z,56.5
2023-04-27T03:18:37.709Z,55.9
2023-04-27T03:19:53.999Z,59.4
2023-04-27T03:21:10.256Z,57
2023-04-27T03:22:26.535Z,56.7
2023-04-27T03:23:42.836Z,61.2
2023-04-27T03:24:59.139Z,56
2023-04-27T03:26:15.375Z,62.3
2023-04-27T03:27:31.679Z,56.2
2023-04-27T03:28:47.976Z,56.5
2023-04-27T03:30:04.261Z,54.3
2023-04-27T03:31:20.529Z,56.2
2023-04-27T03:32:36.817Z,60.2
2023-04-27T03:33:53.066Z,58.1
2023-04-27T03:35:08.320Z,57
2023-04-27T03:36:24.577Z,61.2
2023-04-27T03:37:40.801Z,58.6
2023-04-27T03:38:57.055Z,56.2
2023-04-27T03:40:13.290Z,56.2
2023-04-27T03:41:29.534Z,56.8
2023-04-27T03:42:45.775Z,55.9
2023-04-27T03:44:02.007Z,58.9
2023-04-27T03:45:18.266Z,57.6
2023-04-27T03:46:34.510Z,57.8
2023-04-27T03:47:50.731Z,57
2023-04-27T03:49:06.974Z,58.3
2023-04-27T03:50:23.220Z,57.2
2023-04-27T03:51:38.491Z,56.3
2023-04-27T03:52:54.730Z,57.8
2023-04-27T03:54:10.971Z,54.3
2023-04-27T03:55:27.208Z,55.4
2023-04-27T03:56:43.438Z,58.4
2023-04-27T03:57:59.696Z,55.9
2023-04-27T03:59:14.943Z,57.6
2023-04-27T04:00:31.180Z,56.5
2023-04-27T04:01:47.439Z,58.3
2023-04-27T04:03:03.677Z,57.3
2023-04-27T04:04:19.911Z,57.2
2023-04-27T04:05:36.151Z,58.6
2023-04-27T04:06:52.395Z,57.8
2023-04-27T04:08:08.645Z,56
2023-04-27T04:09:24.888Z,55.4
2023-04-27T04:10:41.129Z,56.8
2023-04-27T04:11:57.351Z,59.7
2023-04-27T04:13:13.598Z,57.3
2023-04-27T04:14:29.836Z,56.7
2023-04-27T04:15:45.101Z,58.9
2023-04-27T04:17:01.351Z,59.2
2023-04-27T04:18:17.594Z,58.8
2023-04-27T04:19:33.819Z,57.8
2023-04-27T04:20:50.078Z,59.1
2023-04-27T04:22:06.313Z,56
2023-04-27T04:23:22.550Z,55.9
2023-04-27T04:24:38.791Z,58.4
2023-04-27T04:25:55.035Z,57.3
2023-04-27T04:27:11.278Z,54.6
2023-04-27T04:28:27.522Z,58.1
2023-04-27T04:29:43.746Z,58
2023-04-27T04:31:00.007Z,57.3
2023-04-27T04:32:15.251Z,56.7
2023-04-27T04:33:31.490Z,57.3
2023-04-27T04:34:47.744Z,58.8
2023-04-27T04:36:03.989Z,56.3
2023-04-27T04:37:20.218Z,57.3
2023-04-27T04:38:36.464Z,60.7
2023-04-27T04:39:52.701Z,62
2023-04-27T04:41:08.948Z,58.1
2023-04-27T04:42:25.191Z,58.1
2023-04-27T04:43:41.429Z,57
2023-04-27T04:44:57.669Z,57.6
2023-04-27T04:46:13.903Z,54.6
2023-04-27T04:47:30.147Z,57.5
2023-04-27T04:48:45.411Z,56.7
2023-04-27T04:50:01.649Z,56.2
2023-04-27T04:51:17.893Z,56.2
2023-04-27T04:52:34.129Z,56
2023-04-27T04:53:50.364Z,58
2023-04-27T04:55:06.617Z,56.7
2023-04-27T04:56:22.856Z,57.6
2023-04-27T04:57:39.105Z,58.1
2023-04-27T04:58:55.341Z,56.3
2023-04-27T05:00:11.578Z,55.9
2023-04-27T05:01:27.811Z,58.9
2023-04-27T05:02:44.053Z,57
2023-04-27T05:04:00.300Z,57.2
2023-04-27T05:05:15.568Z,58.4
2023-04-27T05:06:31.802Z,61.3
2023-04-27T05:07:48.035Z,55.7
2023-04-27T05:10:20.534Z,57.3
2023-04-27T05:11:36.767Z,57.6
2023-04-27T05:12:53.012Z,60.2
2023-04-27T05:14:09.240Z,61.5
2023-04-27T05:15:25.488Z,57.6
2023-04-27T05:16:41.727Z,59.2
2023-04-27T05:17:57.960Z,58
2023-04-27T05:19:14.213Z,59.7
2023-04-27T05:20:30.459Z,58.8
2023-04-27T05:21:45.702Z,57.3
2023-04-27T05:23:01.942Z,61.3
2023-04-27T05:24:18.186Z,58.4
2023-04-27T05:25:34.426Z,58.3
2023-04-27T05:26:50.681Z,58.6
2023-04-27T05:28:06.926Z,57.5
2023-04-27T05:29:23.152Z,59.6
2023-04-27T05:30:39.397Z,59.7
2023-04-27T05:31:55.639Z,59.6
2023-04-27T05:33:11.888Z,58.1
2023-04-27T05:34:28.117Z,59.7
2023-04-27T05:35:44.369Z,57.6
2023-04-27T05:37:00.613Z,57.2
2023-04-27T05:38:15.862Z,58.1
2023-04-27T05:39:32.098Z,59.2
2023-04-27T05:40:48.341Z,58.9
2023-04-27T05:42:04.590Z,59.9
2023-04-27T05:43:20.834Z,57
2023-04-27T05:44:37.064Z,61.3
2023-04-27T05:45:53.310Z,57
2023-04-27T05:47:09.554Z,61.5
2023-04-27T05:48:25.795Z,58.4
2023-04-27T05:49:42.026Z,56.7
2023-04-27T05:50:58.276Z,57
2023-04-27T05:52:14.515Z,58
2023-04-27T05:53:30.751Z,57.6
2023-04-27T05:54:46.012Z,59.1
2023-04-27T05:56:02.260Z,60.1
2023-04-27T05:57:18.499Z,58.1
2023-04-27T05:58:34.733Z,58.8
2023-04-27T05:59:50.969Z,59.2
2023-04-27T06:01:07.216Z,56.7
2023-04-27T06:02:23.445Z,56.7
2023-04-27T06:03:39.693Z,60.7
2023-04-27T06:04:55.930Z,58.9
2023-04-27T06:06:12.173Z,58.1
2023-04-27T06:07:28.414Z,57
2023-04-27T06:08:44.658Z,55.7
2023-04-27T06:10:00.899Z,57.6
2023-04-27T06:11:16.157Z,56.5
2023-04-27T06:12:32.395Z,55.9
2023-04-27T06:13:48.647Z,55.2
2023-04-27T06:15:04.876Z,56.2
2023-04-27T06:16:21.113Z,57.3
2023-04-27T06:17:37.355Z,55.9
2023-04-27T06:18:53.595Z,56
2023-04-27T06:20:09.850Z,53.4
2023-04-27T06:21:26.080Z,53.4
2023-04-27T06:22:42.330Z,53.8
2023-04-27T06:23:58.577Z,54.3
2023-04-27T06:25:14.799Z,53.9
2023-04-27T06:26:31.059Z,53.4
2023-04-27T06:27:46.306Z,52.6
2023-04-27T06:29:02.552Z,52
2023-04-27T06:30:18.795Z,52.5
2023-04-27T06:31:35.024Z,51
2023-04-27T06:32:51.279Z,52.2
2023-04-27T06:34:07.520Z,50.7
2023-04-27T06:35:23.747Z,51.2
2023-04-27T06:36:39.997Z,50.7
2023-04-27T06:37:56.229Z,50.7
2023-04-27T06:39:12.468Z,49.3
2023-04-27T06:40:28.712Z,50.1
2023-04-27T06:41:44.967Z,49.6
2023-04-27T06:43:01.205Z,51
2023-04-27T06:44:16.445Z,49.6
2023-04-27T06:45:32.692Z,49.3
2023-04-27T06:46:48.943Z,52.6
2023-04-27T06:48:05.175Z,48.9
2023-04-27T06:49:21.428Z,48.6
2023-04-27T06:50:37.656Z,67.1
2023-04-27T06:51:53.909Z,53.9
2023-04-27T06:53:10.142Z,48.1
2023-04-27T06:54:26.384Z,49.9
2023-04-27T06:55:42.614Z,48.3
2023-04-27T06:56:58.860Z,51.2
2023-04-27T06:58:15.104Z,48.3
2023-04-27T06:59:31.350Z,48.6
2023-04-27T07:00:46.598Z,53.4
2023-04-27T07:02:02.842Z,48.5
2023-04-27T07:03:19.091Z,48.3
2023-04-27T07:04:35.321Z,49.4
2023-04-27T07:05:51.557Z,47.5
2023-04-27T07:07:07.818Z,48.3
2023-04-27T07:08:24.039Z,53.4
2023-04-27T07:09:40.284Z,47.8
2023-04-27T07:10:56.534Z,47.8
2023-04-27T07:12:12.776Z,48.3
2023-04-27T07:14:45.257Z,51.5
2023-04-27T07:16:01.491Z,49.7
2023-04-27T07:17:16.745Z,48.6
2023-04-27T07:18:32.992Z,54.1
2023-04-27T07:19:49.230Z,49.9
2023-04-27T07:21:05.472Z,50.1
2023-04-27T07:22:21.711Z,48.6
2023-04-27T07:23:37.966Z,47.5
2023-04-27T07:24:54.187Z,48.6
2023-04-27T07:26:10.430Z,48
2023-04-27T07:27:26.678Z,48.1
2023-04-27T07:28:42.910Z,48.5
2023-04-27T07:29:59.162Z,47.8
2023-04-27T07:31:15.391Z,48.6
2023-04-27T07:32:31.645Z,48.9
2023-04-27T07:33:46.892Z,48.1
2023-04-27T07:35:03.134Z,46.7
2023-04-27T07:36:19.384Z,46.5
2023-04-27T07:37:35.621Z,48.8
2023-04-27T07:38:51.869Z,48.6
2023-04-27T07:40:08.101Z,47.3
2023-04-27T07:41:24.343Z,48.3
2023-04-27T07:42:40.578Z,47.3
2023-04-27T07:43:56.820Z,51.2
2023-04-27T07:45:13.071Z,50.4
2023-04-27T07:46:29.306Z,47.6
2023-04-27T07:47:45.545Z,46.4
2023-04-27T07:49:01.791Z,47
2023-04-27T07:50:17.042Z,49.1
2023-04-27T07:51:33.293Z,48.5
2023-04-27T07:52:49.516Z,55.1
2023-04-27T07:54:05.763Z,47.2
2023-04-27T07:55:21.999Z,47.5
2023-04-27T07:56:38.239Z,56.3
2023-04-27T07:57:54.478Z,53.4
2023-04-27T07:59:10.734Z,48
2023-04-27T08:00:26.963Z,47.5
2023-04-27T08:01:43.202Z,49.1
2023-04-27T08:02:59.438Z,47.3
2023-04-27T08:04:15.694Z,48.3
2023-04-27T08:05:31.929Z,48.9
2023-04-27T08:06:47.193Z,46.8
2023-04-27T08:08:03.424Z,48.3
2023-04-27T08:09:19.660Z,46
2023-04-27T08:10:35.908Z,47.5
2023-04-27T08:11:52.141Z,48.1
2023-04-27T08:13:08.385Z,49.9
2023-04-27T08:14:23.656Z,47.2
2023-04-27T08:15:39.885Z,48.1
2023-04-27T08:16:56.124Z,48.5
2023-04-27T08:18:12.379Z,48.9
2023-04-27T08:19:28.619Z,48.5
2023-04-27T08:20:44.855Z,48.8
2023-04-27T08:22:01.086Z,48.6
2023-04-27T08:23:17.339Z,49.4
2023-04-27T08:24:33.570Z,48.6
2023-04-27T08:25:49.809Z,57.6
2023-04-27T08:27:06.057Z,50.4
2023-04-27T08:28:22.297Z,48.3
2023-04-27T08:29:38.536Z,48.3
2023-04-27T08:30:53.790Z,49.1
2023-04-27T08:32:10.030Z,47.2
2023-04-27T08:33:26.276Z,46.4
2023-04-27T08:34:42.504Z,48.9
2023-04-27T08:35:58.749Z,49.1
2023-04-27T08:37:14.999Z,49.1
2023-04-27T08:38:31.232Z,48.9
2023-04-27T08:39:47.484Z,48.6
2023-04-27T08:41:03.724Z,48.3
2023-04-27T08:42:19.959Z,48.8
2023-04-27T08:43:36.204Z,49.1
2023-04-27T08:44:52.450Z,48.6
2023-04-27T08:46:08.686Z,47.8
2023-04-27T08:47:23.932Z,49.9
2023-04-27T08:48:40.185Z,48.8
2023-04-27T08:49:56.413Z,48.3
2023-04-27T08:51:12.661Z,50.4
2023-04-27T08:52:28.904Z,47.2
2023-04-27T08:53:45.141Z,52
2023-04-27T08:55:01.383Z,54.4
2023-04-27T08:56:17.632Z,53.8
2023-04-27T08:57:33.858Z,51.5
2023-04-27T08:58:50.100Z,51.2
2023-04-27T09:00:06.348Z,48.5
2023-04-27T09:01:22.592Z,47.2
2023-04-27T09:02:38.826Z,48
2023-04-27T09:03:54.075Z,48.3
2023-04-27T09:05:10.331Z,49.4
2023-04-27T09:06:26.565Z,47.3
2023-04-27T09:07:42.796Z,48.5
2023-04-27T09:08:59.054Z,48.3
2023-04-27T09:10:15.276Z,48.1
2023-04-27T09:11:31.519Z,50.9
2023-04-27T09:12:47.772Z,47.8
2023-04-27T09:14:04.007Z,46.2
2023-04-27T09:15:20.239Z,53.4
2023-04-27T09:16:36.481Z,51.5
2023-04-27T09:17:52.733Z,48.8
2023-04-27T09:19:08.966Z,49.9
2023-04-27T09:20:24.223Z,48
2023-04-27T09:21:40.470Z,47.3
2023-04-27T09:22:56.713Z,47.8
2023-04-27T09:24:12.938Z,48.9
2023-04-27T09:25:29.189Z,48.6
2023-04-27T09:26:45.430Z,47.3
2023-04-27T09:28:01.671Z,47.2
2023-04-27T09:29:17.917Z,47.3
2023-04-27T09:30:34.157Z,48.1
2023-04-27T09:31:50.392Z,47.5
2023-04-27T09:33:06.632Z,48.3
2023-04-27T09:34:22.901Z,50.5
2023-04-27T09:35:39.137Z,47.2
2023-04-27T09:36:54.384Z,49.3
2023-04-27T09:38:10.638Z,48.6
2023-04-27T09:39:26.865Z,48.1
2023-04-27T09:40:43.118Z,50.1
2023-04-27T09:41:59.358Z,47.6
2023-04-27T09:43:15.592Z,48.3
2023-04-27T09:44:31.829Z,47.5
2023-04-27T09:45:48.068Z,48.6
2023-04-27T09:47:04.302Z,49.1
2023-04-27T09:48:20.541Z,48.5
2023-04-27T09:49:36.788Z,50.1
2023-04-27T09:50:53.034Z,48.9
2023-04-27T09:52:09.273Z,46.2
2023-04-27T09:53:24.532Z,49.3
2023-04-27T09:54:40.775Z,49.7
2023-04-27T09:55:57.017Z,47.8
2023-04-27T09:57:13.240Z,47.6
2023-04-27T09:58:29.496Z,49.4
2023-04-27T09:59:45.725Z,47.6
2023-04-27T10:01:01.970Z,47
2023-04-27T10:02:18.220Z,48.3
2023-04-27T10:03:34.448Z,49.3
2023-04-27T10:04:50.696Z,48.1
2023-04-27T10:06:06.941Z,48.3
2023-04-27T10:07:23.188Z,48.5
2023-04-27T10:08:39.411Z,50.4
2023-04-27T10:09:54.674Z,47.6
2023-04-27T10:11:10.919Z,59.4
2023-04-27T10:12:27.160Z,48
2023-04-27T10:13:43.382Z,47.2
2023-04-27T10:14:59.627Z,55.4
2023-04-27T10:16:15.876Z,48.5
2023-04-27T10:17:32.111Z,52.8
2023-04-27T10:18:48.350Z,51.7
2023-04-27T10:20:04.594Z,47.8
2023-04-27T10:21:20.828Z,46.2
2023-04-27T10:22:37.083Z,47.3
2023-04-27T10:23:53.325Z,46
2023-04-27T10:25:09.560Z,48.3
2023-04-27T10:26:24.812Z,49.1
2023-04-27T10:27:41.056Z,48.1
2023-04-27T10:28:57.000Z,46.7
2023-04-27T10:30:13.537Z,48.1
2023-04-27T10:31:29.774Z,50.9
2023-04-27T10:34:02.254Z,56.2
2023-04-27T10:35:18.497Z,49.1
2023-04-27T10:36:34.728Z,48.3
2023-04-27T10:37:50.986Z,47.8
2023-04-27T10:39:07.222Z,47.3
2023-04-27T10:40:23.467Z,48.9
2023-04-27T10:41:39.685Z,48.9
2023-04-27T10:42:54.942Z,48.3
2023-04-27T10:44:11.199Z,48.5
2023-04-27T10:45:27.431Z,50.4
2023-04-27T10:46:43.669Z,49.1
2023-04-27T10:47:59.927Z,46.7
2023-04-27T10:49:16.165Z,48.3
2023-04-27T10:50:32.407Z,46.4
2023-04-27T10:51:48.640Z,48.1
2023-04-27T10:53:04.882Z,49.3
2023-04-27T10:54:21.122Z,49.3
2023-04-27T10:55:37.370Z,48.3
2023-04-27T10:56:53.605Z,48.9
2023-04-27T10:58:09.845Z,47.6
2023-04-27T10:59:25.102Z,52
2023-04-27T11:00:41.344Z,47.2
2023-04-27T11:01:57.576Z,48.6
2023-04-27T11:03:13.823Z,50.9
2023-04-27T11:04:30.058Z,50.4
2023-04-27T11:05:46.291Z,47.8
2023-04-27T11:07:02.540Z,46.2
2023-04-27T11:08:18.774Z,46.7
2023-04-27T11:09:35.021Z,47
2023-04-27T11:10:51.263Z,49.9
2023-04-27T11:12:07.502Z,47.8
2023-04-27T11:13:23.741Z,47.2
2023-04-27T11:14:39.987Z,47.5
2023-04-27T11:15:55.240Z,46.2
2023-04-27T11:17:11.490Z,49.9
2023-04-27T11:18:27.722Z,49.3
2023-04-27T11:19:43.955Z,47.6
2023-04-27T11:21:00.201Z,47.8
2023-04-27T11:22:16.437Z,49.4
2023-04-27T11:23:32.671Z,48.5
2023-04-27T11:24:48.924Z,49.6
2023-04-27T11:26:05.157Z,47.8
2023-04-27T11:27:21.403Z,57
2023-04-27T11:28:37.635Z,46.2
2023-04-27T11:29:53.887Z,48
2023-04-27T11:31:10.123Z,47.6
2023-04-27T11:32:25.392Z,48.6
2023-04-27T11:33:41.611Z,47.2
2023-04-27T11:34:57.849Z,47.6
2023-04-27T11:36:14.106Z,47.6
2023-04-27T11:37:30.349Z,54.9
2023-04-27T11:38:46.587Z,57.6
2023-04-27T11:40:02.825Z,51.4
2023-04-27T11:41:19.055Z,46.8
2023-04-27T11:42:35.302Z,48.3
2023-04-27T11:43:51.535Z,47
2023-04-27T11:45:07.775Z,48.5
2023-04-27T11:46:24.022Z,47.5
2023-04-27T11:47:40.271Z,47.2
2023-04-27T11:48:55.517Z,48.1
2023-04-27T11:50:11.753Z,47.3
2023-04-27T11:51:28.013Z,48.6
2023-04-27T11:52:44.253Z,48.3
2023-04-27T11:54:00.481Z,48.3
2023-04-27T11:55:16.719Z,48
2023-04-27T11:56:32.959Z,48.8
2023-04-27T11:57:49.193Z,49.1
2023-04-27T11:59:05.441Z,48.1
2023-04-27T12:00:21.676Z,48.6
2023-04-27T12:01:37.928Z,49.7
2023-04-27T12:02:54.154Z,50.1
2023-04-27T12:04:10.396Z,48.9
2023-04-27T12:05:25.671Z,48.6
2023-04-27T12:06:41.902Z,48.1
2023-04-27T12:07:58.160Z,48.5
2023-04-27T12:09:14.388Z,48.9
2023-04-27T12:10:30.629Z,48
2023-04-27T12:11:46.872Z,48.6
2023-04-27T12:13:03.111Z,49.7
2023-04-27T12:14:19.351Z,49.9
2023-04-27T12:15:35.599Z,48.6
2023-04-27T12:16:51.835Z,48.1
2023-04-27T12:18:08.079Z,46.8
2023-04-27T12:19:24.317Z,52.5
2023-04-27T12:20:40.556Z,46.2
2023-04-27T12:21:55.806Z,50.2
2023-04-27T12:23:12.049Z,48.6
2023-04-27T12:24:28.291Z,45.7
2023-04-27T12:25:44.525Z,48.3
2023-04-27T12:27:00.766Z,48.1
2023-04-27T12:28:17.009Z,54.6
2023-04-27T12:29:32.278Z,48.5
2023-04-27T12:30:48.516Z,50.9
2023-04-27T12:32:04.768Z,47.3
2023-04-27T12:33:20.996Z,47
2023-04-27T12:34:37.242Z,52.2
2023-04-27T12:35:53.471Z,47.8
2023-04-27T12:37:09.724Z,49.3
2023-04-27T12:38:25.962Z,56.5
2023-04-27T12:39:42.210Z,54.4
2023-04-27T12:40:58.444Z,47.5
2023-04-27T12:42:14.682Z,48.1
2023-04-27T12:43:30.912Z,48.3
2023-04-27T12:44:47.168Z,49.9
2023-04-27T12:46:02.415Z,50.1
2023-04-27T12:47:18.664Z,48.3
2023-04-27T12:48:34.899Z,49.6
2023-04-27T12:49:51.145Z,48.8
2023-04-27T12:51:07.378Z,53.8
2023-04-27T12:52:23.624Z,48.5
2023-04-27T12:53:39.859Z,48.6
2023-04-27T12:54:56.105Z,51.8
2023-04-27T12:56:12.339Z,47.5
2023-04-27T12:57:28.572Z,47.3
2023-04-27T12:58:44.821Z,49.4
2023-04-27T13:00:01.062Z,55.1
2023-04-27T13:01:17.308Z,55.2
2023-04-27T13:02:32.556Z,58.4
2023-04-27T13:03:48.795Z,55.1
2023-04-27T13:05:05.051Z,55.2
2023-04-27T13:06:21.276Z,52.5
2023-04-27T13:07:37.515Z,53.4
2023-04-27T13:08:53.759Z,56.8
2023-04-27T13:10:10.008Z,56.3
2023-04-27T13:11:26.240Z,51.8
2023-04-27T13:12:42.473Z,54.1
2023-04-27T13:13:58.731Z,48.1
2023-04-27T13:15:14.961Z,51.5
2023-04-27T13:16:31.211Z,50.4
2023-04-27T13:17:47.446Z,49.7
2023-04-27T13:19:02.706Z,47.6
2023-04-27T13:20:18.934Z,50.4
2023-04-27T13:21:35.174Z,47.8
2023-04-27T13:22:51.427Z,47.8
2023-04-27T13:24:07.656Z,49.6
2023-04-27T13:25:23.895Z,49.9
2023-04-27T13:26:40.137Z,48.3
2023-04-27T13:27:56.375Z,47.5
2023-04-27T13:29:12.622Z,48.9
2023-04-27T13:30:28.866Z,47.3
2023-04-27T13:31:45.114Z,52.8
2023-04-27T13:33:01.349Z,46.2
2023-04-27T13:34:17.580Z,45.7
2023-04-27T13:35:32.848Z,62.5
2023-04-27T13:36:49.075Z,48.9
2023-04-27T13:38:05.314Z,49.3
2023-04-27T13:39:21.569Z,48.6
2023-04-27T13:40:37.792Z,47.6
2023-04-27T13:41:54.032Z,48.6
2023-04-27T13:43:10.294Z,49.4
2023-04-27T13:44:26.528Z,52.6
2023-04-27T13:45:42.773Z,47.2
2023-04-27T13:46:59.013Z,48.3
2023-04-27T13:48:15.237Z,49.1
2023-04-27T13:49:31.484Z,47.2
2023-04-27T13:50:47.726Z,46.8
2023-04-27T13:52:02.987Z,45.2
2023-04-27T13:53:19.223Z,47.2
2023-04-27T13:54:35.474Z,48.3
2023-04-27T13:55:51.701Z,46.8
2023-04-27T13:57:07.950Z,47
2023-04-27T13:58:24.191Z,47.8
2023-04-27T13:59:40.421Z,48.1
2023-04-27T14:00:56.668Z,49.9
2023-04-27T14:02:12.905Z,50.1
2023-04-27T14:03:29.137Z,48.9
2023-04-27T14:04:45.397Z,52.6
2023-04-27T14:06:01.625Z,48
2023-04-27T14:07:17.854Z,47.6
2023-04-27T14:08:33.117Z,49.3
2023-04-27T14:09:49.364Z,47
2023-04-27T14:11:05.607Z,53.4
2023-04-27T14:12:21.844Z,48.6
2023-04-27T14:13:38.082Z,48
2023-04-27T14:14:54.325Z,49.1
2023-04-27T14:16:10.567Z,47.5
2023-04-27T14:17:26.813Z,48.3
2023-04-27T14:18:43.042Z,48.6
2023-04-27T14:19:59.286Z,49.1
2023-04-27T14:21:15.523Z,49.9
2023-04-27T14:22:31.765Z,49.7
2023-04-27T14:23:48.002Z,49.1
2023-04-27T14:25:03.263Z,49.4
2023-04-27T14:26:19.500Z,47.8
2023-04-27T14:27:35.749Z,48.9
2023-04-27T14:28:51.985Z,48.5
2023-04-27T14:30:08.227Z,47.8
2023-04-27T14:31:24.462Z,50.5
2023-04-27T14:32:40.705Z,46
2023-04-27T14:33:56.940Z,47.8
2023-04-27T14:35:13.179Z,47.2
2023-04-27T14:36:29.432Z,48.6
2023-04-27T14:37:45.681Z,47.2
2023-04-27T14:39:01.901Z,57
2023-04-27T14:40:18.143Z,47.8
2023-04-27T14:41:33.395Z,49.9
2023-04-27T14:42:49.638Z,48.5
2023-04-27T14:44:05.880Z,47
2023-04-27T14:45:22.131Z,45.7
2023-04-27T14:46:38.368Z,52.5
2023-04-27T14:47:54.601Z,55.9
2023-04-27T14:49:10.842Z,48.1
2023-04-27T14:50:27.085Z,52.5
2023-04-27T14:51:43.327Z,47.5
2023-04-27T14:52:59.571Z,48.5
2023-04-27T14:54:15.807Z,46.4
2023-04-27T14:55:32.052Z,46.5
2023-04-27T14:56:48.288Z,53.1
2023-04-27T14:58:03.552Z,48.5
2023-04-27T14:59:19.784Z,46
2023-04-27T15:00:36.029Z,48.5
2023-04-27T15:01:52.269Z,48.9
2023-04-27T15:03:08.504Z,47.3
2023-04-27T15:04:24.749Z,48.3
2023-04-27T15:05:40.989Z,47
2023-04-27T15:06:57.231Z,46.4
2023-04-27T15:08:13.477Z,47.5
2023-04-27T15:09:29.699Z,48.6
2023-04-27T15:10:45.960Z,48.9
2023-04-27T15:12:02.181Z,45.2
2023-04-27T15:13:18.440Z,45.7
2023-04-27T15:14:33.692Z,44.6
2023-04-27T15:15:49.920Z,46.2
2023-04-27T15:17:06.173Z,48.3
2023-04-27T15:18:22.413Z,46.5
2023-04-27T15:19:38.653Z,48.3
2023-04-27T15:20:54.894Z,47.3
2023-04-27T15:22:11.136Z,46
2023-04-27T15:23:27.364Z,45.2
2023-04-27T15:24:43.620Z,46.4
2023-04-27T15:25:59.852Z,46.5
2023-04-27T15:27:16.087Z,44.1
2023-04-27T15:28:32.330Z,43.5
2023-04-27T15:29:48.572Z,44.4
2023-04-27T15:31:03.819Z,44.4
2023-04-27T15:32:20.076Z,43.9
2023-04-27T15:33:36.312Z,44.1
2023-04-27T15:34:52.554Z,48.3
2023-04-27T15:36:08.797Z,48.5
2023-04-27T15:37:25.031Z,48.6
2023-04-27T15:38:41.263Z,47.8
2023-04-27T15:39:57.519Z,46.7
2023-04-27T15:41:13.749Z,50.9
2023-04-27T15:42:29.990Z,55.1
2023-04-27T15:43:46.239Z,55.1
2023-04-27T15:45:02.468Z,54.9
2023-04-27T15:46:18.716Z,53.3
2023-04-27T15:47:33.974Z,49.1
2023-04-27T15:48:50.203Z,48.6
2023-04-27T15:50:06.451Z,49.7
2023-04-27T15:51:22.695Z,50.5
2023-04-27T15:52:38.934Z,47.2
2023-04-27T15:53:55.180Z,47.6
2023-04-27T15:55:11.402Z,47.2
2023-04-27T15:56:27.652Z,48.9
2023-04-27T15:57:43.887Z,47
2023-04-27T15:59:00.125Z,44.9
2023-04-27T16:00:16.368Z,47.3
2023-04-27T16:01:32.607Z,46
2023-04-27T16:02:48.860Z,47.8
2023-04-27T16:04:04.099Z,44.6
2023-04-27T16:05:20.341Z,47.3
2023-04-27T16:06:36.584Z,47.2
2023-04-27T16:07:52.836Z,48.3
2023-04-27T16:09:09.066Z,47.6
2023-04-27T16:10:25.316Z,46.4
2023-04-27T16:11:41.547Z,45.2
2023-04-27T16:12:57.786Z,48.8
2023-04-27T16:14:14.036Z,48.3
2023-04-27T16:15:30.271Z,46.4
2023-04-27T16:16:46.513Z,46.7
2023-04-27T16:18:02.755Z,48.6
2023-04-27T16:19:18.986Z,48.6
2023-04-27T16:20:34.252Z,46.5
2023-04-27T16:21:50.487Z,45.7
2023-04-27T16:23:06.726Z,43.6
2023-04-27T16:24:22.971Z,48.1
2023-04-27T16:25:39.217Z,43.6
2023-04-27T16:26:55.445Z,44.6
2023-04-27T16:28:11.696Z,47.6
2023-04-27T16:29:27.935Z,44.1
2023-04-27T16:30:44.183Z,47.3
2023-04-27T16:32:00.406Z,44.9
2023-04-27T16:33:16.645Z,46.2
2023-04-27T16:34:32.884Z,46
2023-04-27T16:35:49.140Z,45.7
2023-04-27T16:37:04.384Z,45.9
2023-04-27T16:38:20.621Z,45.2
2023-04-27T16:39:36.878Z,48.1
2023-04-27T16:40:53.104Z,43.8
2023-04-27T16:42:09.353Z,45.9
2023-04-27T16:43:25.585Z,46.8
2023-04-27T16:44:40.857Z,44.7
2023-04-27T16:45:57.095Z,46.2
2023-04-27T16:47:13.344Z,45.2
2023-04-27T16:48:29.577Z,49.7
2023-04-27T16:49:45.824Z,44.6
2023-04-27T16:51:02.062Z,44.7
2023-04-27T16:52:18.285Z,46.8
2023-04-27T16:53:34.540Z,48.1
2023-04-27T16:54:50.771Z,48.3
2023-04-27T16:56:07.024Z,53.4
2023-04-27T16:57:23.261Z,50.4
2023-04-27T16:58:39.506Z,48.5
2023-04-27T16:59:55.743Z,45.7
2023-04-27T17:01:10.985Z,46.2
2023-04-27T17:02:27.226Z,46.8
2023-04-27T17:03:43.481Z,46.4